Time;durP1;ratioP1;P1;durP2;ratioP2;P2;SDS_P1;SDS_P2;PMS_P1;PMS_P2;Temp;Humidity;BMP_temperature;BMP_pressure;BME280_temperature;BME280_humidity;BME280_pressure;Samples;Min_cycle;Max_cycle;Signal;HPM_P1;HPM_P2
2022/09/17 00:00:11;;;;;;;6.32;3.75;;;;;;;;;;5064472;28;20025;-81
2022/09/17 00:02:38;;;;;;;5.68;3.25;;;;;;;;;;5059554;28;20045;-80
2022/09/17 00:05:05;;;;;;;6.30;3.88;;;;;;;;;;5055032;28;20027;-80
2022/09/17 00:07:31;;;;;;;6.28;3.55;;;;;;;;;;5061435;28;20057;-81
2022/09/17 00:09:57;;;;;;;5.93;3.80;;;;;;;;;;5068950;28;20028;-82
2022/09/17 00:12:23;;;;;;;6.28;3.28;;;;;;;;;;5080470;28;20085;-81
2022/09/17 00:14:49;;;;;;;5.57;3.20;;;;;;;;;;5062674;28;20029;-80
2022/09/17 00:17:15;;;;;;;6.00;3.33;;;;;;;;;;5064347;28;20045;-81
2022/09/17 00:19:41;;;;;;;6.65;3.67;;;;;;;;;;5066938;28;20028;-80
2022/09/17 00:22:07;;;;;;;5.55;3.20;;;;;;;;;;5064988;28;20029;-80
2022/09/17 00:24:33;;;;;;;6.03;3.50;;;;;;;;;;5063678;28;20438;-81
2022/09/17 00:26:59;;;;;;;5.40;3.22;;;;;;;;;;5063752;28;20033;-79
2022/09/17 00:29:25;;;;;;;6.43;3.80;;;;;;;;;;5050554;28;20103;-80
2022/09/17 00:31:51;;;;;;;7.32;3.95;;;;;;;;;;5061363;28;20536;-81
2022/09/17 00:34:17;;;;;;;6.07;3.33;;;;;;;;;;5063413;28;20036;-81
2022/09/17 00:36:43;;;;;;;6.30;3.55;;;;;;;;;;5061872;28;20045;-82
2022/09/17 00:39:10;;;;;;;6.18;3.53;;;;;;;;;;5063045;28;20107;-81
2022/09/17 00:41:37;;;;;;;6.15;3.60;;;;;;;;;;5064084;28;20067;-81
2022/09/17 00:44:21;;;;;;;6.22;3.70;;;;;;;;;;5054821;28;20051;-81
2022/09/17 00:46:48;;;;;;;5.70;3.30;;;;;;;;;;5062399;28;20032;-81
2022/09/17 00:49:20;;;;;;;7.85;3.80;;;;;;;;;;5066568;28;20049;-83
2022/09/17 00:51:51;;;;;;;7.15;4.10;;;;;;;;;;5063802;28;20066;-81
2022/09/17 00:54:18;;;;;;;6.97;3.67;;;;;;;;;;5067767;28;20029;-81
2022/09/17 00:56:44;;;;;;;7.38;4.05;;;;;;;;;;5063427;28;20045;-82
2022/09/17 00:59:11;;;;;;;5.72;3.63;;;;;;;;;;5064497;28;20098;-81
2022/09/17 01:01:37;;;;;;;7.55;4.13;;;;;;;;;;5057764;28;20057;-80
2022/09/17 01:04:03;;;;;;;6.68;3.72;;;;;;;;;;5054786;28;20036;-81
2022/09/17 01:06:32;;;;;;;6.30;4.10;;;;;;;;;;5055979;28;20463;-81
2022/09/17 01:09:05;;;;;;;6.25;4.00;;;;;;;;;;5054847;28;20036;-82
2022/09/17 01:11:31;;;;;;;;;;;;;;;;;;5046155;28;20037;-81
2022/09/17 01:14:05;;;;;;;6.00;3.67;;;;;;;;;;5053345;28;19954;-81
2022/09/17 01:16:39;;;;;;;6.78;4.07;;;;;;;;;;5055835;28;20074;-81
2022/09/17 01:19:05;;;;;;;6.70;3.53;;;;;;;;;;5055894;28;20571;-80
2022/09/17 01:21:50;;;;;;;6.07;3.53;;;;;;;;;;5055502;28;20032;-80
2022/09/17 01:24:28;;;;;;;5.57;3.17;;;;;;;;;;5045047;28;20061;-80
2022/09/17 01:27:06;;;;;;;6.88;3.45;;;;;;;;;;5054815;28;20515;-80
2022/09/17 01:29:35;;;;;;;6.25;3.75;;;;;;;;;;5056175;28;20025;-81
2022/09/17 01:32:15;;;;;;;5.82;3.58;;;;;;;;;;5058087;28;20032;-82
2022/09/17 01:35:05;;;;;;;6.15;3.63;;;;;;;;;;5066625;28;20120;-81
2022/09/17 01:37:39;;;;;;;7.40;3.97;;;;;;;;;;5045405;28;20052;-81
2022/09/17 01:40:12;;;;;;;5.60;3.92;;;;;;;;;;5060966;28;20040;-81
2022/09/17 01:42:56;;;;;;;5.90;3.95;;;;;;;;;;5061548;28;20021;-81
2022/09/17 01:45:43;;;;;;;6.43;4.30;;;;;;;;;;5067739;28;20028;-81
2022/09/17 01:48:11;;;;;;;6.63;4.05;;;;;;;;;;5050805;28;20035;-82
2022/09/17 01:50:40;;;;;;;6.85;3.80;;;;;;;;;;5061521;28;20032;-81
2022/09/17 01:53:07;;;;;;;7.07;3.90;;;;;;;;;;5059533;28;20485;-81
2022/09/17 01:55:36;;;;;;;8.02;4.45;;;;;;;;;;5050499;28;20147;-80
2022/09/17 01:58:07;;;;;;;8.60;4.03;;;;;;;;;;5040249;28;20359;-81
2022/09/17 02:00:33;;;;;;;7.15;4.20;;;;;;;;;;5062606;28;20028;-81
2022/09/17 02:03:01;;;;;;;5.95;3.60;;;;;;;;;;5061660;28;20029;-82
2022/09/17 02:05:34;;;;;;;6.40;4.20;;;;;;;;;;5063161;28;20040;-81
2022/09/17 02:08:04;;;;;;;6.32;3.78;;;;;;;;;;5061915;28;20389;-81
2022/09/17 02:10:36;;;;;;;7.47;4.13;;;;;;;;;;5062020;28;20158;-81
2022/09/17 02:13:07;;;;;;;6.82;3.70;;;;;;;;;;5062843;28;20037;-81
2022/09/17 02:15:36;;;;;;;5.72;3.75;;;;;;;;;;5052986;28;20087;-81
2022/09/17 02:18:14;;;;;;;7.63;4.43;;;;;;;;;;5054683;28;20057;-81
2022/09/17 02:20:45;;;;;;;8.32;3.90;;;;;;;;;;5055292;28;20078;-81
2022/09/17 02:23:17;;;;;;;6.40;4.03;;;;;;;;;;5061754;28;20088;-82
2022/09/17 02:25:56;;;;;;;6.60;3.78;;;;;;;;;;5059942;28;20025;-81
2022/09/17 02:28:30;;;;;;;7.32;4.18;;;;;;;;;;5049452;28;20689;-81
2022/09/17 02:30:56;;;;;;;7.25;3.90;;;;;;;;;;5055063;28;20492;-81
2022/09/17 02:33:23;;;;;;;6.70;4.07;;;;;;;;;;5060783;28;20025;-81
2022/09/17 02:35:49;;;;;;;8.05;4.13;;;;;;;;;;5061122;28;20036;-81
2022/09/17 02:38:26;;;;;;;7.25;4.55;;;;;;;;;;5059261;28;20045;-82
2022/09/17 02:40:58;;;;;;;6.97;4.20;;;;;;;;;;5058064;28;20027;-82
2022/09/17 02:43:32;;;;;;;8.30;4.47;;;;;;;;;;5051448;28;20017;-82
2022/09/17 02:46:17;;;;;;;7.20;4.20;;;;;;;;;;5061666;28;20033;-82
2022/09/17 02:48:43;;;;;;;7.95;4.63;;;;;;;;;;5059206;28;20405;-82
2022/09/17 02:51:21;;;;;;;6.60;4.30;;;;;;;;;;5059448;28;20044;-82
2022/09/17 02:53:47;;;;;;;7.63;4.55;;;;;;;;;;5060897;28;20508;-82
2022/09/17 02:56:18;;;;;;;7.35;4.63;;;;;;;;;;5060516;28;20032;-82
2022/09/17 02:58:55;;;;;;;7.50;4.88;;;;;;;;;;5062686;28;20029;-81
2022/09/17 03:01:29;;;;;;;7.38;4.25;;;;;;;;;;5056096;28;20033;-82
2022/09/17 03:03:58;;;;;;;7.60;4.57;;;;;;;;;;5060679;28;20419;-80
2022/09/17 03:06:25;;;;;;;7.20;4.20;;;;;;;;;;5058384;28;20052;-82
2022/09/17 03:08:51;;;;;;;7.05;4.40;;;;;;;;;;5064091;28;20068;-82
2022/09/17 03:11:17;;;;;;;6.97;4.00;;;;;;;;;;5056573;28;20026;-82
2022/09/17 03:13:43;;;;;;;8.60;4.18;;;;;;;;;;5048575;28;20029;-82
2022/09/17 03:16:10;;;;;;;8.45;4.18;;;;;;;;;;5067581;28;20078;-82
2022/09/17 03:18:36;;;;;;;7.45;5.20;;;;;;;;;;5069603;28;20041;-82
2022/09/17 03:21:02;;;;;;;7.63;4.93;;;;;;;;;;5064102;28;20145;-83
2022/09/17 03:23:28;;;;;;;8.15;4.60;;;;;;;;;;5061098;28;20052;-82
2022/09/17 03:25:54;;;;;;;8.27;4.95;;;;;;;;;;5057289;28;20018;-82
2022/09/17 03:28:20;;;;;;;8.93;5.07;;;;;;;;;;5052319;28;20035;-81
2022/09/17 03:30:47;;;;;;;8.05;4.70;;;;;;;;;;5062999;28;20041;-81
2022/09/17 03:33:13;;;;;;;7.53;4.40;;;;;;;;;;5057435;28;20065;-80
2022/09/17 03:35:42;;;;;;;6.80;3.80;;;;;;;;;;5054572;28;20022;-81
2022/09/17 03:38:08;;;;;;;6.88;3.67;;;;;;;;;;5062529;28;20025;-81
2022/09/17 03:40:35;;;;;;;6.40;3.80;;;;;;;;;;5060422;28;20022;-81
2022/09/17 03:43:01;;;;;;;7.13;4.25;;;;;;;;;;5061534;28;20083;-81
2022/09/17 03:45:27;;;;;;;5.93;3.72;;;;;;;;;;5059312;28;20025;-81
2022/09/17 03:47:54;;;;;;;6.68;4.30;;;;;;;;;;5064471;28;20028;-81
2022/09/17 03:50:21;;;;;;;7.13;3.85;;;;;;;;;;5062834;28;20234;-81
2022/09/17 03:52:47;;;;;;;6.45;3.80;;;;;;;;;;5056182;28;20029;-80
2022/09/17 03:55:13;;;;;;;8.27;4.32;;;;;;;;;;5047000;28;20041;-80
2022/09/17 03:57:39;;;;;;;6.90;3.97;;;;;;;;;;5048026;28;20022;-81
2022/09/17 04:00:06;;;;;;;6.10;3.65;;;;;;;;;;5054075;28;20032;-81
2022/09/17 04:02:32;;;;;;;5.95;3.83;;;;;;;;;;5054503;28;20025;-80
2022/09/17 04:04:58;;;;;;;7.40;3.85;;;;;;;;;;5051628;28;20025;-80
2022/09/17 04:07:24;;;;;;;6.18;3.55;;;;;;;;;;5057295;28;20021;-80
2022/09/17 04:09:50;;;;;;;6.85;3.53;;;;;;;;;;5054305;28;20026;-80
2022/09/17 04:12:16;;;;;;;7.03;3.72;;;;;;;;;;5056782;28;20536;-81
2022/09/17 04:14:43;;;;;;;6.43;3.70;;;;;;;;;;5055840;28;20384;-80
2022/09/17 04:17:10;;;;;;;7.20;3.70;;;;;;;;;;5046303;28;20064;-79
2022/09/17 04:19:36;;;;;;;6.68;3.80;;;;;;;;;;5057113;28;20033;-81
2022/09/17 04:22:02;;;;;;;6.80;4.10;;;;;;;;;;5056283;28;20515;-80
2022/09/17 04:24:29;;;;;;;6.30;3.80;;;;;;;;;;5055384;28;20036;-80
2022/09/17 04:26:55;;;;;;;6.88;3.80;;;;;;;;;;5053918;28;20040;-81
2022/09/17 04:29:21;;;;;;;7.47;3.65;;;;;;;;;;5065688;28;20029;-81
2022/09/17 04:31:47;;;;;;;6.07;3.38;;;;;;;;;;5073422;28;20079;-80
2022/09/17 04:34:13;;;;;;;5.95;3.53;;;;;;;;;;5055715;28;20033;-81
2022/09/17 04:36:39;;;;;;;6.40;4.25;;;;;;;;;;5061608;28;20404;-82
2022/09/17 04:39:05;;;;;;;6.88;3.65;;;;;;;;;;5072058;28;20724;-82
2022/09/17 04:41:31;;;;;;;6.47;3.70;;;;;;;;;;5084053;28;20078;-82
2022/09/17 04:43:57;;;;;;;6.20;3.70;;;;;;;;;;5083118;28;20025;-81
2022/09/17 04:46:23;;;;;;;6.60;3.88;;;;;;;;;;5064325;28;20573;-81
2022/09/17 04:48:49;;;;;;;6.28;3.80;;;;;;;;;;5065011;28;20043;-81
2022/09/17 04:51:15;;;;;;;7.22;3.60;;;;;;;;;;5066657;28;20454;-82
2022/09/17 04:53:41;;;;;;;6.40;3.80;;;;;;;;;;5057575;28;20398;-81
2022/09/17 04:56:07;;;;;;;6.57;4.03;;;;;;;;;;5054635;28;20040;-80
2022/09/17 04:58:33;;;;;;;6.35;3.70;;;;;;;;;;5057741;28;20029;-80
2022/09/17 05:00:59;;;;;;;6.35;3.80;;;;;;;;;;5072634;28;20028;-81
2022/09/17 05:03:25;;;;;;;7.35;4.53;;;;;;;;;;5056202;28;20025;-81
2022/09/17 05:05:51;;;;;;;7.00;3.63;;;;;;;;;;5052631;28;20024;-81
2022/09/17 05:08:17;;;;;;;5.97;3.45;;;;;;;;;;5054341;28;20040;-81
2022/09/17 05:10:43;;;;;;;6.88;4.00;;;;;;;;;;5060370;28;20055;-81
2022/09/17 05:13:09;;;;;;;7.70;4.28;;;;;;;;;;5058915;28;20489;-81
2022/09/17 05:15:35;;;;;;;6.45;4.10;;;;;;;;;;5053619;28;20039;-81
2022/09/17 05:18:01;;;;;;;7.70;4.38;;;;;;;;;;5054308;28;20021;-81
2022/09/17 05:20:34;;;;;;;6.82;4.50;;;;;;;;;;5056003;28;20437;-81
2022/09/17 05:23:00;;;;;;;7.20;4.38;;;;;;;;;;5067725;28;20016;-81
2022/09/17 05:25:27;;;;;;;7.80;4.65;;;;;;;;;;5080772;28;20039;-82
2022/09/17 05:27:56;;;;;;;7.50;4.70;;;;;;;;;;5081190;28;20043;-81
2022/09/17 05:30:26;;;;;;;8.07;4.93;;;;;;;;;;5071389;28;20029;-81
2022/09/17 05:33:05;;;;;;;9.10;5.97;;;;;;;;;;5062241;28;20092;-81
2022/09/17 05:35:45;;;;;;;8.85;5.30;;;;;;;;;;5078110;28;20111;-81
2022/09/17 05:38:12;;;;;;;9.52;5.70;;;;;;;;;;5082560;28;20487;-81
2022/09/17 05:40:38;;;;;;;10.13;5.80;;;;;;;;;;5066284;28;20048;-83
2022/09/17 05:43:05;;;;;;;8.40;5.50;;;;;;;;;;5065353;28;20488;-82
2022/09/17 05:45:36;;;;;;;8.00;5.80;;;;;;;;;;5072443;28;20085;-80
2022/09/17 05:48:03;;;;;;;9.02;5.55;;;;;;;;;;5060918;28;20471;-81
2022/09/17 05:50:30;;;;;;;9.57;5.60;;;;;;;;;;5074298;28;20036;-80
2022/09/17 05:52:56;;;;;;;9.25;6.30;;;;;;;;;;5061436;28;20047;-80
2022/09/17 05:55:23;;;;;;;9.50;6.60;;;;;;;;;;5061190;28;20039;-82
2022/09/17 05:57:49;;;;;;;8.55;5.70;;;;;;;;;;5060618;28;20120;-82
2022/09/17 06:00:15;;;;;;;8.55;5.72;;;;;;;;;;5060500;28;20025;-81
2022/09/17 06:02:41;;;;;;;9.02;5.35;;;;;;;;;;5062131;28;20017;-81
2022/09/17 06:05:08;;;;;;;8.85;6.38;;;;;;;;;;5059157;28;20035;-83
2022/09/17 06:07:37;;;;;;;7.90;5.38;;;;;;;;;;5060892;28;20036;-81
2022/09/17 06:10:04;;;;;;;9.90;6.05;;;;;;;;;;5062920;28;20044;-81
2022/09/17 06:12:30;;;;;;;9.63;6.03;;;;;;;;;;5061833;28;20056;-81
2022/09/17 06:14:56;;;;;;;8.32;5.45;;;;;;;;;;5059820;28;20485;-80
2022/09/17 06:17:22;;;;;;;9.43;5.78;;;;;;;;;;5054101;28;20078;-82
2022/09/17 06:19:48;;;;;;;9.52;5.65;;;;;;;;;;5055147;28;20025;-81
2022/09/17 06:22:14;;;;;;;8.70;5.30;;;;;;;;;;5053382;28;20377;-79
2022/09/17 06:24:40;;;;;;;7.80;5.10;;;;;;;;;;5053382;28;20025;-81
2022/09/17 06:27:06;;;;;;;9.85;5.60;;;;;;;;;;5053168;28;20151;-83
2022/09/17 06:29:32;;;;;;;8.55;5.32;;;;;;;;;;5053245;28;20111;-80
2022/09/17 06:31:59;;;;;;;8.82;5.93;;;;;;;;;;5053355;28;20400;-79
2022/09/17 06:34:25;;;;;;;9.35;5.40;;;;;;;;;;5052416;28;20100;-79
2022/09/17 06:36:51;;;;;;;8.38;5.95;;;;;;;;;;5056338;28;20063;-81
2022/09/17 06:39:21;;;;;;;11.15;6.47;;;;;;;;;;5061255;28;20067;-83
2022/09/17 06:41:47;;;;;;;8.95;6.15;;;;;;;;;;5070834;28;20036;-82
2022/09/17 06:44:13;;;;;;;9.35;6.38;;;;;;;;;;5058323;28;20419;-82
2022/09/17 06:46:40;;;;;;;9.90;6.95;;;;;;;;;;5059382;28;20047;-81
2022/09/17 06:49:06;;;;;;;9.15;6.20;;;;;;;;;;5060494;28;20123;-83
2022/09/17 06:51:32;;;;;;;9.57;6.63;;;;;;;;;;5061881;28;20067;-82
2022/09/17 06:53:58;;;;;;;10.40;7.60;;;;;;;;;;5079558;28;20021;-82
2022/09/17 06:56:25;;;;;;;10.15;6.47;;;;;;;;;;5075304;28;20499;-82
2022/09/17 06:58:53;;;;;;;9.63;6.70;;;;;;;;;;5060784;28;20017;-82
2022/09/17 07:01:19;;;;;;;9.40;6.25;;;;;;;;;;5060857;28;20408;-81
2022/09/17 07:03:48;;;;;;;7.65;5.47;;;;;;;;;;5060137;28;20036;-81
2022/09/17 07:06:14;;;;;;;7.75;5.65;;;;;;;;;;5059076;28;20017;-80
2022/09/17 07:08:40;;;;;;;8.02;5.10;;;;;;;;;;5058614;28;20025;-81
2022/09/17 07:11:07;;;;;;;6.45;4.45;;;;;;;;;;5071463;28;20033;-81
2022/09/17 07:13:33;;;;;;;7.68;4.72;;;;;;;;;;5061652;28;20024;-81
2022/09/17 07:16:00;;;;;;;8.48;5.30;;;;;;;;;;5058377;28;20025;-81
2022/09/17 07:18:26;;;;;;;10.68;7.00;;;;;;;;;;5059605;28;20022;-81
2022/09/17 07:20:56;;;;;;;9.80;6.50;;;;;;;;;;5060316;28;20506;-82
2022/09/17 07:23:26;;;;;;;11.05;6.70;;;;;;;;;;5077288;28;20077;-82
2022/09/17 07:25:53;;;;;;;12.27;7.07;;;;;;;;;;5073558;28;20024;-82
2022/09/17 07:28:19;;;;;;;9.30;6.50;;;;;;;;;;5060556;28;20026;-82
2022/09/17 07:30:45;;;;;;;8.85;6.13;;;;;;;;;;5059942;28;20035;-82
2022/09/17 07:33:11;;;;;;;9.38;6.50;;;;;;;;;;5061527;28;20112;-81
2022/09/17 07:35:37;;;;;;;8.45;5.82;;;;;;;;;;5080637;28;20060;-81
2022/09/17 07:38:03;;;;;;;9.65;7.13;;;;;;;;;;5061475;28;20053;-82
2022/09/17 07:40:29;;;;;;;8.48;5.95;;;;;;;;;;5060749;28;20486;-81
2022/09/17 07:42:57;;;;;;;8.95;6.25;;;;;;;;;;5061753;28;20032;-81
2022/09/17 07:45:23;;;;;;;8.88;6.10;;;;;;;;;;5061354;28;20040;-82
2022/09/17 07:47:49;;;;;;;8.50;5.43;;;;;;;;;;5063769;28;20028;-81
2022/09/17 07:50:16;;;;;;;6.93;4.85;;;;;;;;;;5064951;28;20059;-81
2022/09/17 07:52:49;;;;;;;6.53;4.22;;;;;;;;;;5065363;28;20063;-81
2022/09/17 07:55:16;;;;;;;6.32;4.10;;;;;;;;;;5061397;28;20066;-80
2022/09/17 07:57:42;;;;;;;8.13;4.63;;;;;;;;;;5057722;28;20550;-80
2022/09/17 08:00:08;;;;;;;6.28;3.92;;;;;;;;;;5066886;28;20404;-81
2022/09/17 08:02:34;;;;;;;6.07;3.92;;;;;;;;;;5077758;28;20032;-79
2022/09/17 08:05:00;;;;;;;6.65;3.90;;;;;;;;;;5077735;28;20024;-79
2022/09/17 08:07:26;;;;;;;6.40;3.17;;;;;;;;;;5072106;28;20025;-80
2022/09/17 08:09:52;;;;;;;5.60;2.88;;;;;;;;;;5057335;28;20024;-81
2022/09/17 08:12:18;;;;;;;5.30;3.08;;;;;;;;;;5057497;28;20402;-81
2022/09/17 08:14:44;;;;;;;5.43;2.75;;;;;;;;;;5057070;28;20483;-80
2022/09/17 08:17:10;;;;;;;5.30;3.03;;;;;;;;;;5058754;28;20060;-81
2022/09/17 08:19:36;;;;;;;6.70;2.72;;;;;;;;;;5077190;28;20025;-84
2022/09/17 08:22:02;;;;;;;4.80;2.42;;;;;;;;;;5077185;28;20487;-81
2022/09/17 08:24:28;;;;;;;4.07;2.00;;;;;;;;;;5061118;28;20027;-81
2022/09/17 08:26:54;;;;;;;4.35;2.20;;;;;;;;;;5057301;28;20029;-81
2022/09/17 08:29:20;;;;;;;3.45;1.63;;;;;;;;;;5060573;28;20523;-82
2022/09/17 08:31:47;;;;;;;3.53;1.42;;;;;;;;;;5077454;28;20041;-81
2022/09/17 08:34:13;;;;;;;4.10;1.92;;;;;;;;;;5076441;28;20104;-81
2022/09/17 08:36:39;;;;;;;3.90;1.60;;;;;;;;;;5057170;28;20056;-81
2022/09/17 08:39:05;;;;;;;4.03;1.63;;;;;;;;;;5056393;28;20553;-80
2022/09/17 08:41:40;;;;;;;3.92;1.55;;;;;;;;;;5062140;28;20039;-79
2022/09/17 08:44:09;;;;;;;4.43;1.70;;;;;;;;;;5058426;28;20051;-80
2022/09/17 08:46:38;;;;;;;3.45;1.50;;;;;;;;;;5056935;28;20108;-82
2022/09/17 08:49:17;;;;;;;5.43;1.42;;;;;;;;;;5056311;28;20053;-79
2022/09/17 08:52:06;;;;;;;4.05;1.40;;;;;;;;;;5057240;28;20025;-79
2022/09/17 08:54:32;;;;;;;4.65;1.60;;;;;;;;;;5058877;28;20037;-79
2022/09/17 08:57:11;;;;;;;3.83;1.48;;;;;;;;;;5056809;28;20029;-79
2022/09/17 08:59:51;;;;;;;4.35;1.60;;;;;;;;;;5056766;28;20024;-81
2022/09/17 09:02:37;;;;;;;2.85;1.23;;;;;;;;;;5062602;28;20044;-81
2022/09/17 09:05:32;;;;;;;2.63;1.15;;;;;;;;;;5068077;28;20017;-81
2022/09/17 09:08:12;;;;;;;3.30;1.42;;;;;;;;;;5082174;28;20389;-81
2022/09/17 09:10:47;;;;;;;3.40;1.05;;;;;;;;;;5081181;28;20046;-81
2022/09/17 09:13:17;;;;;;;3.42;1.27;;;;;;;;;;5062882;28;20086;-82
2022/09/17 09:16:02;;;;;;;3.55;1.27;;;;;;;;;;5051946;28;20071;-81
2022/09/17 09:18:48;;;;;;;3.17;1.27;;;;;;;;;;5082339;28;20020;-83
2022/09/17 09:21:38;;;;;;;3.08;1.30;;;;;;;;;;5066482;28;20032;-81
2022/09/17 09:24:23;;;;;;;3.78;1.20;;;;;;;;;;5063669;28;20673;-81
2022/09/17 09:27:26;;;;;;;4.07;1.38;;;;;;;;;;5064730;28;20032;-81
2022/09/17 09:30:12;;;;;;;2.85;1.13;;;;;;;;;;4980277;28;20039;-82
2022/09/17 09:36:35;;;;;;;3.25;1.25;;;;;;;;;;4968427;28;20055;-80
2022/09/17 09:39:26;;;;;;;3.55;1.50;;;;;;;;;;4922853;29;20135;-81
2022/09/17 09:42:31;;;;;;;3.47;1.40;;;;;;;;;;4922763;29;20032;-81
2022/09/17 09:45:25;;;;;;;3.33;1.15;;;;;;;;;;4942301;28;20036;-80
2022/09/17 09:48:22;;;;;;;3.63;1.27;;;;;;;;;;4901336;29;20139;-81
2022/09/17 09:51:34;;;;;;;3.05;1.30;;;;;;;;;;4931029;29;20275;-80
2022/09/17 09:57:13;;;;;;;3.78;1.25;;;;;;;;;;4941395;29;20072;-81
2022/09/17 09:59:42;;;;;;;3.13;1.20;;;;;;;;;;4939662;29;20036;-81
2022/09/17 10:02:08;;;;;;;3.60;1.30;;;;;;;;;;4937310;29;20123;-81
2022/09/17 10:04:34;;;;;;;2.92;1.25;;;;;;;;;;5006177;28;20045;-81
2022/09/17 10:07:04;;;;;;;3.90;1.40;;;;;;;;;;4996856;28;20520;-80
2022/09/17 10:09:31;;;;;;;3.20;1.35;;;;;;;;;;4998558;28;20038;-80
2022/09/17 10:12:02;;;;;;;4.85;1.60;;;;;;;;;;4997549;28;20041;-80
2022/09/17 10:14:29;;;;;;;3.22;1.45;;;;;;;;;;5005376;28;20042;-81
2022/09/17 10:17:14;;;;;;;2.75;1.23;;;;;;;;;;5061366;28;20040;-81
2022/09/17 10:19:40;;;;;;;3.78;1.38;;;;;;;;;;5052311;28;20036;-81
2022/09/17 10:22:18;;;;;;;2.90;1.33;;;;;;;;;;5035909;28;20029;-81
2022/09/17 10:24:45;;;;;;;3.75;1.30;;;;;;;;;;5043761;28;20600;-80
2022/09/17 10:27:13;;;;;;;2.78;1.23;;;;;;;;;;5034292;28;20033;-81
2022/09/17 10:29:44;;;;;;;3.95;1.60;;;;;;;;;;5039519;28;20091;-81
2022/09/17 10:32:17;;;;;;;3.42;1.38;;;;;;;;;;5046216;28;20033;-80
2022/09/17 10:35:03;;;;;;;3.35;1.27;;;;;;;;;;5058640;28;20033;-83
2022/09/17 10:37:32;;;;;;;4.25;1.45;;;;;;;;;;5058227;28;20021;-81
2022/09/17 10:39:58;;;;;;;3.88;1.38;;;;;;;;;;5060268;28;20145;-80
2022/09/17 10:42:24;;;;;;;3.28;1.30;;;;;;;;;;5061667;28;20029;-81
2022/09/17 10:44:59;;;;;;;4.07;1.85;;;;;;;;;;5059558;28;20100;-81
2022/09/17 10:47:28;;;;;;;4.43;1.85;;;;;;;;;;5059490;28;20344;-81
2022/09/17 10:50:00;;;;;;;5.50;2.00;;;;;;;;;;5072009;28;20061;-82
2022/09/17 10:52:31;;;;;;;3.78;1.80;;;;;;;;;;5102364;28;20030;-81
2022/09/17 10:55:05;;;;;;;4.55;2.10;;;;;;;;;;5101870;28;20024;-80
2022/09/17 10:57:50;;;;;;;4.40;2.20;;;;;;;;;;5099438;28;20035;-82
2022/09/17 11:00:18;;;;;;;4.20;2.00;;;;;;;;;;5095947;28;20028;-82
2022/09/17 11:03:05;;;;;;;5.28;2.67;;;;;;;;;;5079413;28;20020;-82
2022/09/17 11:05:34;;;;;;;4.68;2.55;;;;;;;;;;5082574;28;20017;-81
2022/09/17 11:08:06;;;;;;;4.90;2.20;;;;;;;;;;5093580;28;20042;-83
2022/09/17 11:10:32;;;;;;;5.95;2.35;;;;;;;;;;5101944;28;20099;-81
2022/09/17 11:12:58;;;;;;;3.88;2.03;;;;;;;;;;5090949;28;20036;-81
2022/09/17 11:15:36;;;;;;;5.00;2.20;;;;;;;;;;5114641;28;20110;-83
2022/09/17 11:18:02;;;;;;;4.30;2.22;;;;;;;;;;5101163;28;20092;-81
2022/09/17 11:20:34;;;;;;;5.50;2.13;;;;;;;;;;5103113;28;20020;-82
2022/09/17 11:23:19;;;;;;;5.57;2.35;;;;;;;;;;5085776;28;20021;-82
2022/09/17 11:25:45;;;;;;;5.32;2.40;;;;;;;;;;5100234;28;20080;-83
2022/09/17 11:28:17;;;;;;;4.47;2.40;;;;;;;;;;5113570;28;20024;-82
2022/09/17 11:30:43;;;;;;;;;;;;;;;;;;5108567;28;20020;-82
2022/09/17 11:33:28;;;;;;;4.55;1.95;;;;;;;;;;5106115;28;19927;-84
2022/09/17 11:35:59;;;;;;;3.83;2.10;;;;;;;;;;5085014;28;20071;-84
2022/09/17 11:38:47;;;;;;;4.03;2.10;;;;;;;;;;5114185;28;20028;-81
2022/09/17 11:41:16;;;;;;;4.45;1.88;;;;;;;;;;5121503;28;20462;-81
2022/09/17 11:43:52;;;;;;;5.03;2.15;;;;;;;;;;5120474;28;20069;-85
2022/09/17 11:46:23;;;;;;;4.50;2.35;;;;;;;;;;5112072;28;20024;-83
2022/09/17 11:48:57;;;;;;;3.72;1.83;;;;;;;;;;5107577;28;20043;-80
2022/09/17 11:51:32;;;;;;;4.88;2.63;;;;;;;;;;5082483;28;20044;-80
2022/09/17 11:54:03;;;;;;;4.40;2.30;;;;;;;;;;5082902;28;20025;-82
2022/09/17 11:56:29;;;;;;;4.30;1.90;;;;;;;;;;5086223;28;20020;-83
2022/09/17 11:59:05;;;;;;;6.78;2.20;;;;;;;;;;5105874;28;20025;-81
2022/09/17 12:01:35;;;;;;;6.55;2.38;;;;;;;;;;5082407;28;20028;-81
2022/09/17 12:04:26;;;;;;;3.90;1.95;;;;;;;;;;5099481;28;20024;-82
2022/09/17 12:06:57;;;;;;;4.80;2.05;;;;;;;;;;5101709;28;20043;-82
2022/09/17 12:09:25;;;;;;;4.03;1.90;;;;;;;;;;5098802;28;20055;-83
2022/09/17 12:12:03;;;;;;;5.25;2.00;;;;;;;;;;5099300;28;20028;-81
2022/09/17 12:14:38;;;;;;;4.70;1.75;;;;;;;;;;5099236;28;20548;-81
2022/09/17 12:17:04;;;;;;;4.82;2.33;;;;;;;;;;5098120;28;20414;-82
2022/09/17 12:19:35;;;;;;;4.35;2.28;;;;;;;;;;5106039;28;20023;-81
2022/09/17 12:22:07;;;;;;;5.15;2.13;;;;;;;;;;5123112;28;20127;-84
2022/09/17 12:24:33;;;;;;;4.18;2.42;;;;;;;;;;5102177;28;20447;-81
2022/09/17 12:27:05;;;;;;;4.15;2.15;;;;;;;;;;5097669;28;20126;-80
2022/09/17 12:29:37;;;;;;;5.05;2.40;;;;;;;;;;5099662;28;20492;-79
2022/09/17 12:32:22;;;;;;;4.10;2.05;;;;;;;;;;5121710;28;20027;-81
2022/09/17 12:34:53;;;;;;;5.65;2.30;;;;;;;;;;5119583;28;20073;-81
2022/09/17 12:37:19;;;;;;;6.95;2.42;;;;;;;;;;5104779;28;20054;-83
2022/09/17 12:39:51;;;;;;;4.53;2.60;;;;;;;;;;5119200;28;20064;-82
2022/09/17 12:42:22;;;;;;;5.60;2.70;;;;;;;;;;5100857;28;20539;-79
2022/09/17 12:44:49;;;;;;;4.60;2.40;;;;;;;;;;5096369;28;20027;-79
2022/09/17 12:47:18;;;;;;;3.90;2.25;;;;;;;;;;5097743;28;20054;-80
2022/09/17 12:50:02;;;;;;;5.40;2.85;;;;;;;;;;5096894;28;20503;-79
2022/09/17 12:52:52;;;;;;;7.55;2.80;;;;;;;;;;5096289;28;20085;-78
2022/09/17 12:55:24;;;;;;;5.65;2.50;;;;;;;;;;5075552;28;20556;-78
2022/09/17 12:57:56;;;;;;;5.20;2.50;;;;;;;;;;5075660;28;20078;-78
2022/09/17 13:00:22;;;;;;;5.20;2.50;;;;;;;;;;5095201;28;20095;-79
2022/09/17 13:03:00;;;;;;;5.00;2.38;;;;;;;;;;5116548;28;20057;-79
2022/09/17 13:05:32;;;;;;;4.88;2.28;;;;;;;;;;5111111;28;20028;-78
2022/09/17 13:08:17;;;;;;;5.28;2.60;;;;;;;;;;5095897;28;20024;-81
2022/09/17 13:11:02;;;;;;;5.97;2.95;;;;;;;;;;5097786;28;20034;-83
2022/09/17 13:13:30;;;;;;;5.10;2.85;;;;;;;;;;5120940;28;20038;-79
2022/09/17 13:15:57;;;;;;;5.10;2.50;;;;;;;;;;5121768;28;20035;-79
2022/09/17 13:18:26;;;;;;;4.78;2.67;;;;;;;;;;5120592;28;20026;-79
2022/09/17 13:21:00;;;;;;;6.22;3.03;;;;;;;;;;5109237;28;20115;-79
2022/09/17 13:23:35;;;;;;;5.80;2.88;;;;;;;;;;5101217;28;20023;-81
2022/09/17 13:26:05;;;;;;;5.00;2.88;;;;;;;;;;5119958;28;20030;-81
2022/09/17 13:29:01;;;;;;;5.63;2.92;;;;;;;;;;5120747;28;20455;-80
2022/09/17 13:31:36;;;;;;;5.70;2.53;;;;;;;;;;5109772;28;20035;-79
2022/09/17 13:34:03;;;;;;;6.35;3.00;;;;;;;;;;5114269;28;20091;-80
2022/09/17 13:36:38;;;;;;;4.70;2.53;;;;;;;;;;5099198;28;20544;-80
2022/09/17 13:39:04;;;;;;;6.13;2.70;;;;;;;;;;5101176;28;20020;-80
2022/09/17 13:41:33;;;;;;;5.22;2.85;;;;;;;;;;5100382;28;20523;-80
2022/09/17 13:44:01;;;;;;;4.60;2.90;;;;;;;;;;5100181;28;20034;-81
2022/09/17 13:46:31;;;;;;;5.25;2.80;;;;;;;;;;5100072;28;20051;-80
2022/09/17 13:48:59;;;;;;;5.13;2.50;;;;;;;;;;5100677;28;20016;-80
2022/09/17 13:51:31;;;;;;;5.82;2.40;;;;;;;;;;5099274;28;20060;-80
2022/09/17 13:53:59;;;;;;;5.88;2.80;;;;;;;;;;5101117;28;20020;-80
2022/09/17 13:56:44;;;;;;;6.05;2.80;;;;;;;;;;5100375;28;20028;-80
2022/09/17 13:59:13;;;;;;;5.50;2.85;;;;;;;;;;5103619;28;20012;-80
2022/09/17 14:01:48;;;;;;;5.95;3.15;;;;;;;;;;5123580;28;20015;-80
2022/09/17 14:04:34;;;;;;;8.07;3.40;;;;;;;;;;5108790;28;20105;-81
2022/09/17 14:07:00;;;;;;;5.22;3.10;;;;;;;;;;5102271;28;20094;-80
2022/09/17 14:09:34;;;;;;;6.60;2.60;;;;;;;;;;5101952;28;20063;-80
2022/09/17 14:12:00;;;;;;;7.28;2.75;;;;;;;;;;5098865;28;20027;-81
2022/09/17 14:14:26;;;;;;;4.25;2.35;;;;;;;;;;5099205;28;20511;-81
2022/09/17 14:16:52;;;;;;;4.30;2.53;;;;;;;;;;5098541;28;20031;-81
2022/09/17 14:19:21;;;;;;;4.15;2.22;;;;;;;;;;5096284;28;20551;-80
2022/09/17 14:22:06;;;;;;;4.40;2.10;;;;;;;;;;5097447;28;20368;-80
2022/09/17 14:24:38;;;;;;;5.05;2.33;;;;;;;;;;5095733;28;20032;-79
2022/09/17 14:27:34;;;;;;;5.10;2.60;;;;;;;;;;5098111;28;20034;-79
2022/09/17 14:30:11;;;;;;;4.40;2.20;;;;;;;;;;5076469;28;20500;-79
2022/09/17 14:32:38;;;;;;;4.70;2.50;;;;;;;;;;5077169;28;20027;-80
2022/09/17 14:35:13;;;;;;;4.65;2.35;;;;;;;;;;5078333;28;20395;-79
2022/09/17 14:37:41;;;;;;;4.95;2.67;;;;;;;;;;5077855;28;20561;-81
2022/09/17 14:40:09;;;;;;;5.45;3.05;;;;;;;;;;5096474;28;20028;-79
2022/09/17 14:42:36;;;;;;;5.45;3.00;;;;;;;;;;5092863;28;20379;-80
2022/09/17 14:45:04;;;;;;;6.32;2.78;;;;;;;;;;5098043;28;20472;-79
2022/09/17 14:47:30;;;;;;;6.65;2.80;;;;;;;;;;5095983;28;20391;-79
2022/09/17 14:50:18;;;;;;;6.15;2.90;;;;;;;;;;5095744;28;20131;-79
2022/09/17 14:52:48;;;;;;;6.20;2.88;;;;;;;;;;5097031;28;20112;-80
2022/09/17 14:55:16;;;;;;;5.85;2.33;;;;;;;;;;5096987;28;20043;-79
2022/09/17 14:57:43;;;;;;;5.75;2.63;;;;;;;;;;5101147;28;20020;-81
2022/09/17 15:00:15;;;;;;;5.53;2.03;;;;;;;;;;5109111;28;20020;-81
2022/09/17 15:02:45;;;;;;;4.13;1.65;;;;;;;;;;5127343;28;20425;-81
2022/09/17 15:05:20;;;;;;;3.63;1.77;;;;;;;;;;5125781;28;20023;-79
2022/09/17 15:07:46;;;;;;;4.90;1.92;;;;;;;;;;5105824;28;20024;-81
2022/09/17 15:10:22;;;;;;;4.18;1.65;;;;;;;;;;5106659;28;20105;-81